Aeroporto :
LOGIN :

Iscrizione | Disclaimer

   EN    FR    IT 

 










Sommario :    VFR   VFR Marginale   IFR   IFR Intensivo   IFR Molto Intensivo
Visibilità : 
Base nubi : 
>= 8 km
>= 3000ft
5 / 8 km
1000 / 3000 ft
1500m / 5 km
500 / 1000 ft
800 / 1500m
200 / 500 ft
< 800m
< 200 ft
Simboli :   Temporali  Nebbia  Neve Forte  Precipitazioni Forti  Vento > 20 kt
SIGMETs :   Varie  Temporali  Ghiacco  Turbolenza  Onda orograficha  Ceneri Vulcaniche







- Altitudine del aeroporto : 3368 ft


LSGC - Les Eplatures

ULTIMO METAR :
  • 171320Z VRB04KT 9999 FEW045 22/11 Q1020

METARs OBSOLETI :
  • 171250Z 13005KT 030V170 9999 FEW045 21/10 Q1020
  • 171220Z AUTO 08006KT 030V150 CAVOK 21/11 Q1020
  • 171150Z VRB05KT 9999 FEW045 21/09 Q1020
  • 171120Z 07005KT 340V120 9999 FEW045 20/08 Q1020
  • 171050Z 07007KT 010V130 CAVOK 20/09 Q1020

TAF TAF LSGC
Valido dal 17 a 12 ore il 17 a 21 ore UTC


171125Z 1712/1721 06006KT CAVOK
Nessun NOTAM noto per questo aeroporto.



MetMap, La meteo Aeronautica in un colpo d'occhio ! - Copyright ORBIFLY Dicembre 2007 - Disclaimer

ORBIFLY MET'MAP TEAM :

Programmazione e sviluppo : Alexandra Zaïnal
Concezione e sviluppo : Baudouin d'Aumeries
Co-Programmazione e sviluppo : Marc-Olivier Méhu
Supporto tecnico e logistico : Manuel Goepfert
Aiuto per la traduzione : Arnaldo La Scala

Contatto : metmap@orbifly.com




FONTI E CREDITI :

   NOAA